createdAt,value
2018-01-22T00:00:41.994Z,1000.05
2018-01-22T00:01:43.410Z,999.98
2018-01-22T00:02:44.821Z,999.99
2018-01-22T00:03:46.232Z,1000.02
2018-01-22T00:04:47.644Z,1000.06
2018-01-22T00:05:49.054Z,1000.09
2018-01-22T00:06:50.467Z,1000.15
2018-01-22T00:07:51.878Z,1000.22
2018-01-22T00:08:53.290Z,1000.18
2018-01-22T00:09:54.708Z,1000.19
2018-01-22T00:10:56.114Z,1000.22
2018-01-22T00:11:57.531Z,1000.19
2018-01-22T00:12:58.940Z,1000.23
2018-01-22T00:14:00.354Z,1000.18
2018-01-22T00:15:01.771Z,1000.22
2018-01-22T00:16:03.191Z,1000.24
2018-01-22T00:17:04.600Z,1000.22
2018-01-22T00:18:06.029Z,1000.18
2018-01-22T00:19:07.439Z,1000.18
2018-01-22T00:20:08.849Z,1000.15
2018-01-22T00:21:10.262Z,1000.10
2018-01-22T00:22:11.669Z,1000.08
2018-01-22T00:23:13.082Z,1000.03
2018-01-22T00:24:14.485Z,999.98
2018-01-22T00:25:15.899Z,999.93
2018-01-22T00:26:17.307Z,999.94
2018-01-22T00:27:18.705Z,999.89
2018-01-22T00:28:20.114Z,999.83
2018-01-22T00:29:21.529Z,999.73
2018-01-22T00:30:22.940Z,999.68
2018-01-22T00:31:24.345Z,999.56
2018-01-22T00:32:25.752Z,999.47
2018-01-22T00:33:27.161Z,999.44
2018-01-22T00:34:28.562Z,999.44
2018-01-22T00:35:29.984Z,999.40
2018-01-22T00:36:31.390Z,999.36
2018-01-22T00:37:32.794Z,999.39
2018-01-22T00:38:34.201Z,999.32
2018-01-22T00:39:35.611Z,999.25
2018-01-22T00:40:37.022Z,999.24
2018-01-22T00:41:38.475Z,999.14
2018-01-22T00:42:39.885Z,999.14
2018-01-22T00:43:41.292Z,999.07
2018-01-22T00:44:42.696Z,999.05
2018-01-22T00:45:44.112Z,999.03
2018-01-22T00:46:45.525Z,999.02
2018-01-22T00:47:46.943Z,999.01
2018-01-22T00:48:48.408Z,999.08
2018-01-22T00:49:49.818Z,999.07
2018-01-22T00:50:51.226Z,999.09
2018-01-22T00:51:52.637Z,999.08
2018-01-22T00:52:54.046Z,999.03
2018-01-22T00:53:55.455Z,999.00
2018-01-22T00:54:56.869Z,998.99
2018-01-22T00:55:58.287Z,998.98
2018-01-22T00:56:59.711Z,998.98
2018-01-22T00:58:01.115Z,998.99
2018-01-22T00:59:02.526Z,998.93
2018-01-22T01:00:03.939Z,998.98
2018-01-22T01:01:05.347Z,998.95
2018-01-22T01:02:06.758Z,998.92
2018-01-22T01:03:08.176Z,998.93
2018-01-22T01:04:09.582Z,998.90
2018-01-22T01:05:11.000Z,998.85
2018-01-22T01:06:12.413Z,998.77
2018-01-22T01:07:13.836Z,998.74
2018-01-22T01:08:15.232Z,998.66
2018-01-22T01:09:16.637Z,998.64
2018-01-22T01:10:18.054Z,998.59
2018-01-22T01:11:19.456Z,998.57
2018-01-22T01:12:20.868Z,998.51
2018-01-22T01:13:22.278Z,998.46
2018-01-22T01:14:23.696Z,998.37
2018-01-22T01:15:25.970Z,998.32
2018-01-22T01:16:27.389Z,998.29
2018-01-22T01:17:28.803Z,998.30
2018-01-22T01:18:30.220Z,998.25
2018-01-22T01:19:31.628Z,998.27
2018-01-22T01:20:33.029Z,998.20
2018-01-22T01:21:34.436Z,998.12
2018-01-22T01:22:35.845Z,998.09
2018-01-22T01:23:37.251Z,998.06
2018-01-22T01:24:38.665Z,998.02
2018-01-22T01:25:40.077Z,998.05
2018-01-22T01:26:41.484Z,998.08
2018-01-22T01:27:42.896Z,998.09
2018-01-22T01:28:44.300Z,998.04
2018-01-22T01:29:45.705Z,998.04
2018-01-22T01:30:47.120Z,998.05
2018-01-22T01:31:48.519Z,998.04
2018-01-22T01:32:49.939Z,998.07
2018-01-22T01:33:51.354Z,998.06
2018-01-22T01:34:52.790Z,998.06
2018-01-22T01:35:54.169Z,998.01
2018-01-22T01:36:55.586Z,998.05
2018-01-22T01:37:56.991Z,998.05
2018-01-22T01:38:58.411Z,998.03
2018-01-22T01:39:59.829Z,998.02
2018-01-22T01:41:01.249Z,997.98
2018-01-22T01:42:02.685Z,998.02
2018-01-22T01:43:04.093Z,997.98
2018-01-22T01:44:05.502Z,997.94
2018-01-22T01:45:06.908Z,997.93
2018-01-22T01:46:08.334Z,997.83
2018-01-22T01:47:09.740Z,997.78
2018-01-22T01:48:11.136Z,997.77
2018-01-22T01:49:12.553Z,997.77
2018-01-22T01:50:13.979Z,997.79
2018-01-22T01:51:15.409Z,997.73
2018-01-22T01:52:16.812Z,997.76
2018-01-22T01:53:18.219Z,997.72
2018-01-22T01:54:19.632Z,997.72
2018-01-22T01:55:21.039Z,997.71
2018-01-22T01:56:22.446Z,997.73
2018-01-22T01:57:23.857Z,997.68
2018-01-22T01:58:25.264Z,997.65
2018-01-22T01:59:26.677Z,997.63
2018-01-22T02:00:28.086Z,997.65
2018-01-22T02:01:29.503Z,997.65
2018-01-22T02:02:30.912Z,997.62
2018-01-22T02:03:32.328Z,997.59
2018-01-22T02:04:33.731Z,997.54
2018-01-22T02:05:35.130Z,997.54
2018-01-22T02:06:36.542Z,997.54
2018-01-22T02:07:37.949Z,997.50
2018-01-22T02:08:39.365Z,997.45
2018-01-22T02:09:40.766Z,997.41
2018-01-22T02:10:42.180Z,997.44
2018-01-22T02:11:43.588Z,997.45
2018-01-22T02:12:44.988Z,997.45
2018-01-22T02:13:46.400Z,997.42
2018-01-22T02:14:47.813Z,997.39
2018-01-22T02:15:49.217Z,997.36
2018-01-22T02:16:50.615Z,997.40
2018-01-22T02:17:52.029Z,997.41
2018-01-22T02:18:53.434Z,997.44
2018-01-22T02:19:54.849Z,997.41
2018-01-22T02:20:56.257Z,997.34
2018-01-22T02:21:57.670Z,997.34
2018-01-22T02:22:59.091Z,997.27
2018-01-22T02:24:00.488Z,997.21
2018-01-22T02:25:01.895Z,997.23
2018-01-22T02:26:03.301Z,997.17
2018-01-22T02:27:04.712Z,997.17
2018-01-22T02:28:06.121Z,997.10
2018-01-22T02:29:07.530Z,997.06
2018-01-22T02:30:08.948Z,997.08
2018-01-22T02:31:10.357Z,997.09
2018-01-22T02:32:11.755Z,997.06
2018-01-22T02:33:13.169Z,997.06
2018-01-22T02:34:14.574Z,997.07
2018-01-22T02:35:15.990Z,997.02
2018-01-22T02:36:17.393Z,997.01
2018-01-22T02:37:18.810Z,997.04
2018-01-22T02:38:20.213Z,996.95
2018-01-22T02:39:21.625Z,996.94
2018-01-22T02:40:23.035Z,996.89
2018-01-22T02:41:24.453Z,996.89
2018-01-22T02:42:25.864Z,996.82
2018-01-22T02:43:27.265Z,996.80
2018-01-22T02:44:28.663Z,996.80
2018-01-22T02:45:30.100Z,996.82
2018-01-22T02:46:31.509Z,996.81
2018-01-22T02:47:32.914Z,996.74
2018-01-22T02:48:34.326Z,996.75
2018-01-22T02:49:35.732Z,996.74
2018-01-22T02:50:37.137Z,996.72
2018-01-22T02:51:38.543Z,996.71
2018-01-22T02:52:39.955Z,996.69
2018-01-22T02:53:41.362Z,996.70
2018-01-22T02:54:42.771Z,996.67
2018-01-22T02:55:44.184Z,996.72
2018-01-22T02:56:45.590Z,996.74
2018-01-22T02:57:47.121Z,996.73
2018-01-22T02:58:48.527Z,996.72
2018-01-22T02:59:49.952Z,996.70
2018-01-22T03:00:51.360Z,996.65
2018-01-22T03:01:52.767Z,996.62
2018-01-22T03:02:54.182Z,996.61
2018-01-22T03:03:55.590Z,996.56
2018-01-22T03:04:56.993Z,996.49
2018-01-22T03:05:58.406Z,996.39
2018-01-22T03:06:59.819Z,996.34
2018-01-22T03:08:01.229Z,996.32
2018-01-22T03:09:02.636Z,996.21
2018-01-22T03:10:04.047Z,996.20
2018-01-22T03:11:05.468Z,996.19
2018-01-22T03:12:06.886Z,996.15
2018-01-22T03:13:08.301Z,996.09
2018-01-22T03:14:09.706Z,996.08
2018-01-22T03:15:11.115Z,996.06
2018-01-22T03:16:12.571Z,996.11
2018-01-22T03:17:13.982Z,996.08
2018-01-22T03:18:15.391Z,996.06
2018-01-22T03:19:16.797Z,996.08
2018-01-22T03:20:18.200Z,996.09
2018-01-22T03:21:19.614Z,996.11
2018-01-22T03:22:21.035Z,996.09
2018-01-22T03:23:22.435Z,996.13
2018-01-22T03:24:23.848Z,996.11
2018-01-22T03:25:25.256Z,996.08
2018-01-22T03:26:26.662Z,996.12
2018-01-22T03:27:28.081Z,996.10
2018-01-22T03:28:29.510Z,996.09
2018-01-22T03:29:30.917Z,996.07
2018-01-22T03:30:32.328Z,996.06
2018-01-22T03:31:33.746Z,996.08
2018-01-22T03:32:35.172Z,996.02
2018-01-22T03:33:36.581Z,996.04
2018-01-22T03:34:37.992Z,995.98
2018-01-22T03:35:39.408Z,995.93
2018-01-22T03:36:40.818Z,995.94
2018-01-22T03:37:42.222Z,995.90
2018-01-22T03:38:43.638Z,995.92
2018-01-22T03:39:45.046Z,995.83
2018-01-22T03:40:46.445Z,995.85
2018-01-22T03:41:47.859Z,995.82
2018-01-22T03:42:49.269Z,995.87
2018-01-22T03:43:50.676Z,995.89
2018-01-22T03:44:52.082Z,995.82
2018-01-22T03:45:53.503Z,995.83
2018-01-22T03:46:54.917Z,995.81
2018-01-22T03:47:56.324Z,995.79
2018-01-22T03:48:57.743Z,995.83
2018-01-22T03:49:59.159Z,995.87
2018-01-22T03:51:00.565Z,995.87
2018-01-22T03:52:01.970Z,995.89
2018-01-22T03:53:03.383Z,995.80
2018-01-22T03:54:04.781Z,995.84
2018-01-22T03:55:06.191Z,995.85
2018-01-22T03:56:07.598Z,995.86
2018-01-22T03:57:09.003Z,995.80
2018-01-22T03:58:10.414Z,995.82
2018-01-22T03:59:11.877Z,995.83
2018-01-22T04:00:13.285Z,995.78
2018-01-22T04:01:14.699Z,995.82
2018-01-22T04:02:16.109Z,995.76
2018-01-22T04:03:17.524Z,995.78
2018-01-22T04:04:18.933Z,995.79
2018-01-22T04:05:20.336Z,995.87
2018-01-22T04:06:21.844Z,995.86
2018-01-22T04:07:23.251Z,995.79
2018-01-22T04:08:24.658Z,995.82
2018-01-22T04:09:26.073Z,995.81
2018-01-22T04:10:27.474Z,995.73
2018-01-22T04:11:28.884Z,995.67
2018-01-22T04:12:30.298Z,995.68
2018-01-22T04:13:31.706Z,995.70
2018-01-22T04:14:33.116Z,995.62
2018-01-22T04:15:34.527Z,995.57
2018-01-22T04:16:35.939Z,995.61
2018-01-22T04:17:37.347Z,995.59
2018-01-22T04:18:38.776Z,995.53
2018-01-22T04:19:40.199Z,995.58
2018-01-22T04:20:41.624Z,995.61
2018-01-22T04:21:43.029Z,995.62
2018-01-22T04:22:44.440Z,995.73
2018-01-22T04:23:45.853Z,995.74
2018-01-22T04:24:47.260Z,995.71
2018-01-22T04:25:48.659Z,995.73
2018-01-22T04:26:50.070Z,995.79
2018-01-22T04:27:51.504Z,995.75
2018-01-22T04:28:52.897Z,995.78
2018-01-22T04:29:54.311Z,995.77
2018-01-22T04:30:55.718Z,995.69
2018-01-22T04:31:57.256Z,995.70
2018-01-22T04:32:58.657Z,995.61
2018-01-22T04:34:00.070Z,995.61
2018-01-22T04:35:01.482Z,995.54
2018-01-22T04:36:02.898Z,995.62
2018-01-22T04:37:04.304Z,995.51
2018-01-22T04:38:05.707Z,995.49
2018-01-22T04:39:07.118Z,995.47
2018-01-22T04:40:08.523Z,995.49
2018-01-22T04:41:09.935Z,995.45
2018-01-22T04:42:11.343Z,995.51
2018-01-22T04:43:12.745Z,995.43
2018-01-22T04:44:14.152Z,995.48
2018-01-22T04:45:15.560Z,995.45
2018-01-22T04:46:16.969Z,995.42
2018-01-22T04:47:18.376Z,995.41
2018-01-22T04:48:19.783Z,995.34
2018-01-22T04:49:21.206Z,995.35
2018-01-22T04:50:22.628Z,995.29
2018-01-22T04:51:24.031Z,995.27
2018-01-22T04:52:25.445Z,995.29
2018-01-22T04:53:26.852Z,995.30
2018-01-22T04:54:28.269Z,995.28
2018-01-22T04:55:29.696Z,995.25
2018-01-22T04:56:31.094Z,995.22
2018-01-22T04:57:32.502Z,995.21
2018-01-22T04:58:33.912Z,995.19
2018-01-22T04:59:35.329Z,995.20
2018-01-22T05:00:36.741Z,995.17
2018-01-22T05:01:38.109Z,995.13
2018-01-22T05:02:39.503Z,995.10
2018-01-22T05:03:40.910Z,995.01
2018-01-22T05:04:42.317Z,994.94
2018-01-22T05:05:43.716Z,994.93
2018-01-22T05:06:46.593Z,994.91
2018-01-22T05:07:48.005Z,994.86
2018-01-22T05:08:49.417Z,994.80
2018-01-22T05:09:50.830Z,994.84
2018-01-22T05:10:52.228Z,994.83
2018-01-22T05:11:53.635Z,994.81
2018-01-22T05:12:55.049Z,994.79
2018-01-22T05:13:56.465Z,994.70
2018-01-22T05:14:57.867Z,994.74
2018-01-22T05:15:59.270Z,994.69
2018-01-22T05:17:00.677Z,994.71
2018-01-22T05:18:02.082Z,994.72
2018-01-22T05:19:03.486Z,994.77
2018-01-22T05:20:04.904Z,994.70
2018-01-22T05:21:06.327Z,994.75
2018-01-22T05:22:07.727Z,994.73
2018-01-22T05:23:09.145Z,994.71
2018-01-22T05:24:10.551Z,994.72
2018-01-22T05:25:11.957Z,994.65
2018-01-22T05:26:13.376Z,994.58
2018-01-22T05:27:14.788Z,994.52
2018-01-22T05:28:16.197Z,994.56
2018-01-22T05:29:17.623Z,994.53
2018-01-22T05:30:19.038Z,994.53
2018-01-22T05:31:20.442Z,994.52
2018-01-22T05:32:21.849Z,994.52
2018-01-22T05:33:23.258Z,994.56
2018-01-22T05:34:24.666Z,994.55
2018-01-22T05:35:26.067Z,994.51
2018-01-22T05:36:27.484Z,994.50
2018-01-22T05:37:28.889Z,994.52
2018-01-22T05:38:30.297Z,994.52
2018-01-22T05:39:31.722Z,994.56
2018-01-22T05:40:33.180Z,994.50
2018-01-22T05:41:34.547Z,994.49
2018-01-22T05:42:35.946Z,994.50
2018-01-22T05:43:37.356Z,994.51
2018-01-22T05:44:38.771Z,994.53
2018-01-22T05:45:40.177Z,994.54
2018-01-22T05:46:41.580Z,994.55
2018-01-22T05:47:42.999Z,994.52
2018-01-22T05:48:44.400Z,994.55
2018-01-22T05:49:45.819Z,994.59
2018-01-22T05:50:47.230Z,994.56
2018-01-22T05:51:48.638Z,994.60
2018-01-22T05:52:50.041Z,994.56
2018-01-22T05:53:51.447Z,994.56
2018-01-22T05:54:52.862Z,994.52
2018-01-22T05:55:54.271Z,994.57
2018-01-22T05:56:55.681Z,994.59
2018-01-22T05:57:57.086Z,994.60
2018-01-22T05:58:58.500Z,994.61
2018-01-22T05:59:59.916Z,994.60
2018-01-22T06:01:01.323Z,994.62
2018-01-22T06:02:02.732Z,994.56
2018-01-22T06:03:04.144Z,994.51
2018-01-22T06:04:05.563Z,994.55
2018-01-22T06:05:06.960Z,994.54
2018-01-22T06:06:08.356Z,994.58
2018-01-22T06:07:09.764Z,994.55
2018-01-22T06:08:11.179Z,994.52
2018-01-22T06:09:12.586Z,994.55
2018-01-22T06:10:13.988Z,994.51
2018-01-22T06:11:15.401Z,994.55
2018-01-22T06:12:16.800Z,994.53
2018-01-22T06:13:18.225Z,994.53
2018-01-22T06:14:19.628Z,994.55
2018-01-22T06:15:21.037Z,994.60
2018-01-22T06:16:22.443Z,994.65
2018-01-22T06:17:23.850Z,994.63
2018-01-22T06:18:25.246Z,994.69
2018-01-22T06:19:26.785Z,994.63
2018-01-22T06:20:28.196Z,994.67
2018-01-22T06:21:29.602Z,994.65
2018-01-22T06:22:31.016Z,994.67
2018-01-22T06:23:32.421Z,994.69
2018-01-22T06:24:33.841Z,994.65
2018-01-22T06:25:35.246Z,994.60
2018-01-22T06:26:36.659Z,994.65
2018-01-22T06:27:38.065Z,994.64
2018-01-22T06:28:39.475Z,994.71
2018-01-22T06:29:40.890Z,994.70
2018-01-22T06:30:42.293Z,994.64
2018-01-22T06:31:43.698Z,994.59
2018-01-22T06:32:45.114Z,994.63
2018-01-22T06:33:46.525Z,994.57
2018-01-22T06:34:47.931Z,994.57
2018-01-22T06:35:49.346Z,994.52
2018-01-22T06:36:50.753Z,994.54
2018-01-22T06:37:52.171Z,994.54
2018-01-22T06:38:53.579Z,994.53
2018-01-22T06:39:54.981Z,994.53
2018-01-22T06:40:56.390Z,994.55
2018-01-22T06:41:57.800Z,994.51
2018-01-22T06:42:59.220Z,994.52
2018-01-22T06:44:00.626Z,994.56
2018-01-22T06:45:02.118Z,994.59
2018-01-22T06:46:03.530Z,994.60
2018-01-22T06:47:04.940Z,994.66
2018-01-22T06:48:06.350Z,994.67
2018-01-22T06:49:07.770Z,994.61
2018-01-22T06:50:09.177Z,994.66
2018-01-22T06:51:10.599Z,994.66
2018-01-22T06:52:11.998Z,994.69
2018-01-22T06:53:13.409Z,994.69
2018-01-22T06:54:14.814Z,994.68
2018-01-22T06:55:16.221Z,994.65
2018-01-22T06:56:17.634Z,994.62
2018-01-22T06:57:19.042Z,994.72
2018-01-22T06:58:20.450Z,994.68
2018-01-22T06:59:21.858Z,994.69
2018-01-22T07:00:23.274Z,994.75
2018-01-22T07:01:24.683Z,994.75
2018-01-22T07:02:26.096Z,994.84
2018-01-22T07:03:27.508Z,994.76
2018-01-22T07:04:28.920Z,994.70
2018-01-22T07:05:30.334Z,994.76
2018-01-22T07:06:31.736Z,994.81
2018-01-22T07:07:33.158Z,994.73
2018-01-22T07:08:34.565Z,994.76
2018-01-22T07:09:35.969Z,994.82
2018-01-22T07:10:37.384Z,994.83
2018-01-22T07:11:38.756Z,994.81
2018-01-22T07:12:40.167Z,994.78
2018-01-22T07:13:41.571Z,994.80
2018-01-22T07:14:42.981Z,994.79
2018-01-22T07:15:44.400Z,994.84
2018-01-22T07:16:45.815Z,994.81
2018-01-22T07:17:47.231Z,994.83
2018-01-22T07:18:48.640Z,994.82
2018-01-22T07:19:50.047Z,994.90
2018-01-22T07:20:51.453Z,994.89
2018-01-22T07:21:52.867Z,994.86
2018-01-22T07:22:54.277Z,994.89
2018-01-22T07:23:55.685Z,994.91
2018-01-22T07:24:57.086Z,994.90
2018-01-22T07:25:58.501Z,994.84
2018-01-22T07:26:59.889Z,994.85
2018-01-22T07:28:01.306Z,994.90
2018-01-22T07:29:02.714Z,994.86
2018-01-22T07:30:04.140Z,994.88
2018-01-22T07:31:05.541Z,994.86
2018-01-22T07:32:06.961Z,994.86
2018-01-22T07:33:08.367Z,994.88
2018-01-22T07:34:09.777Z,994.77
2018-01-22T07:35:11.199Z,994.84
2018-01-22T07:36:12.610Z,994.87
2018-01-22T07:37:14.022Z,994.87
2018-01-22T07:38:15.428Z,994.90
2018-01-22T07:39:16.837Z,994.92
2018-01-22T07:40:18.248Z,994.95
2018-01-22T07:41:19.658Z,994.92
2018-01-22T07:42:21.068Z,994.98
2018-01-22T07:43:22.483Z,995.01
2018-01-22T07:44:23.896Z,995.04
2018-01-22T07:45:25.298Z,995.07
2018-01-22T07:46:26.712Z,995.07
2018-01-22T07:47:28.121Z,995.04
2018-01-22T07:48:29.534Z,995.06
2018-01-22T07:49:30.946Z,995.04
2018-01-22T07:50:32.373Z,995.02
2018-01-22T07:51:33.780Z,995.07
2018-01-22T07:52:35.200Z,995.13
2018-01-22T07:53:36.602Z,995.08
2018-01-22T07:54:38.008Z,995.08
2018-01-22T07:55:39.420Z,995.14
2018-01-22T07:56:40.826Z,995.10
2018-01-22T07:57:42.228Z,995.09
2018-01-22T07:58:43.648Z,995.19
2018-01-22T07:59:45.068Z,995.18
2018-01-22T08:00:46.476Z,995.23
2018-01-22T08:01:47.890Z,995.23
2018-01-22T08:02:49.298Z,995.22
2018-01-22T08:03:50.709Z,995.26
2018-01-22T08:04:52.141Z,995.29
2018-01-22T08:05:53.533Z,995.21
2018-01-22T08:06:54.942Z,995.18
2018-01-22T08:07:56.353Z,995.18
2018-01-22T08:08:57.772Z,995.19
2018-01-22T08:09:59.193Z,995.24
2018-01-22T08:11:00.592Z,995.22
2018-01-22T08:12:01.997Z,995.23
2018-01-22T08:13:03.402Z,995.20
2018-01-22T08:14:04.814Z,995.17
2018-01-22T08:15:06.217Z,995.18
2018-01-22T08:16:07.626Z,995.17
2018-01-22T08:17:09.156Z,995.18
2018-01-22T08:18:10.571Z,995.25
2018-01-22T08:19:11.993Z,995.26
2018-01-22T08:20:13.445Z,995.30
2018-01-22T08:21:14.813Z,995.20
2018-01-22T08:22:16.230Z,995.20
2018-01-22T08:23:17.640Z,995.20
2018-01-22T08:24:19.159Z,995.19
2018-01-22T08:25:20.569Z,995.13
2018-01-22T08:26:21.981Z,995.10
2018-01-22T08:27:23.386Z,995.07
2018-01-22T08:28:24.796Z,995.08
2018-01-22T08:29:26.205Z,995.04
2018-01-22T08:30:27.619Z,995.06
2018-01-22T08:31:29.029Z,995.04
2018-01-22T08:32:30.446Z,995.04
2018-01-22T08:33:31.861Z,995.07
2018-01-22T08:34:33.280Z,995.06
2018-01-22T08:35:34.697Z,995.07
2018-01-22T08:36:36.120Z,995.09
2018-01-22T08:37:37.524Z,995.12
2018-01-22T08:38:38.933Z,995.13
2018-01-22T08:39:40.349Z,995.20
2018-01-22T08:40:41.767Z,995.21
2018-01-22T08:41:43.168Z,995.21
2018-01-22T08:42:44.722Z,995.24
2018-01-22T08:43:46.150Z,995.21
2018-01-22T08:44:47.574Z,995.18
2018-01-22T08:45:48.977Z,995.15
2018-01-22T08:46:50.381Z,995.11
2018-01-22T08:47:51.798Z,995.18
2018-01-22T08:48:53.214Z,995.24
2018-01-22T08:49:54.628Z,995.27
2018-01-22T08:50:56.041Z,995.30
2018-01-22T08:51:57.462Z,995.27
2018-01-22T08:52:58.864Z,995.26
2018-01-22T08:54:00.272Z,995.29
2018-01-22T08:55:01.730Z,995.33
2018-01-22T08:56:03.138Z,995.35
2018-01-22T08:57:04.548Z,995.28
2018-01-22T08:58:05.960Z,995.34
2018-01-22T08:59:07.376Z,995.38
2018-01-22T09:00:08.791Z,995.40
2018-01-22T09:01:10.215Z,995.39
2018-01-22T09:02:13.333Z,995.39
2018-01-22T09:03:14.731Z,995.41
2018-01-22T09:04:16.160Z,995.50
2018-01-22T09:05:17.580Z,995.48
2018-01-22T09:06:18.994Z,995.54
2018-01-22T09:07:20.407Z,995.50
2018-01-22T09:08:21.822Z,995.46
2018-01-22T09:09:23.239Z,995.49
2018-01-22T09:10:24.652Z,995.46
2018-01-22T09:11:26.067Z,995.42
2018-01-22T09:12:27.475Z,995.47
2018-01-22T09:13:28.897Z,995.46
2018-01-22T09:14:30.324Z,995.38
2018-01-22T09:15:31.726Z,995.36
2018-01-22T09:16:33.140Z,995.41
2018-01-22T09:17:34.555Z,995.50
2018-01-22T09:18:35.989Z,995.51
2018-01-22T09:19:37.413Z,995.44
2018-01-22T09:20:38.826Z,995.47
2018-01-22T09:21:40.226Z,995.54
2018-01-22T09:22:41.651Z,995.54
2018-01-22T09:23:43.060Z,995.52
2018-01-22T09:24:44.483Z,995.64
2018-01-22T09:25:45.893Z,995.72
2018-01-22T09:26:47.304Z,995.62
2018-01-22T09:27:48.728Z,995.59
2018-01-22T09:28:50.136Z,995.70
2018-01-22T09:29:53.626Z,995.69
2018-01-22T09:30:55.032Z,995.78
2018-01-22T09:31:56.439Z,995.73
2018-01-22T09:32:57.852Z,995.75
2018-01-22T09:33:59.269Z,995.79
2018-01-22T09:35:00.709Z,995.90
2018-01-22T09:36:02.110Z,995.88
2018-01-22T09:37:03.524Z,996.00
2018-01-22T09:38:04.971Z,996.00
2018-01-22T09:39:06.393Z,995.97
2018-01-22T09:40:07.809Z,996.01
2018-01-22T09:41:09.220Z,996.06
2018-01-22T09:42:10.627Z,996.06
2018-01-22T09:43:12.042Z,996.02
2018-01-22T09:44:13.460Z,996.00
2018-01-22T09:45:14.911Z,996.02
2018-01-22T09:46:16.328Z,996.05
2018-01-22T09:47:17.729Z,996.07
2018-01-22T09:48:19.141Z,996.04
2018-01-22T09:49:20.560Z,996.04
2018-01-22T09:50:21.977Z,996.07
2018-01-22T09:51:23.389Z,996.10
2018-01-22T09:52:24.795Z,996.08
2018-01-22T09:53:26.213Z,996.07
2018-01-22T09:54:28.158Z,996.06
2018-01-22T09:55:29.597Z,996.08
2018-01-22T09:56:31.014Z,996.08
2018-01-22T09:57:32.426Z,996.11
2018-01-22T09:58:33.846Z,996.11
2018-01-22T09:59:35.257Z,996.11
2018-01-22T10:00:36.762Z,996.05
2018-01-22T10:01:38.145Z,996.07
2018-01-22T10:02:39.552Z,996.09
2018-01-22T10:03:40.968Z,996.06
2018-01-22T10:04:42.379Z,996.06
2018-01-22T10:05:43.797Z,996.06
2018-01-22T10:06:45.205Z,996.00
2018-01-22T10:07:46.686Z,995.99
2018-01-22T10:08:48.102Z,996.00
2018-01-22T10:09:49.529Z,995.99
2018-01-22T10:10:50.955Z,996.02
2018-01-22T10:11:52.369Z,996.03
2018-01-22T10:12:53.792Z,996.08
2018-01-22T10:13:55.205Z,996.10
2018-01-22T10:14:56.626Z,996.07
2018-01-22T10:15:58.042Z,996.09
2018-01-22T10:16:59.458Z,996.11
2018-01-22T10:18:00.871Z,996.16
2018-01-22T10:19:02.285Z,996.17
2018-01-22T10:20:03.701Z,996.20
2018-01-22T10:21:05.116Z,996.23
2018-01-22T10:22:06.524Z,996.23
2018-01-22T10:23:07.934Z,996.21
2018-01-22T10:24:09.355Z,996.28
2018-01-22T10:25:10.772Z,996.29
2018-01-22T10:26:12.188Z,996.27
2018-01-22T10:27:13.593Z,996.34
2018-01-22T10:28:15.020Z,996.36
2018-01-22T10:29:16.454Z,996.32
2018-01-22T10:30:17.862Z,996.37
2018-01-22T10:31:19.266Z,996.36
2018-01-22T10:32:20.692Z,996.36
2018-01-22T10:33:22.951Z,996.39
2018-01-22T10:34:24.357Z,996.37
2018-01-22T10:35:25.780Z,996.39
2018-01-22T10:36:27.193Z,996.38
2018-01-22T10:37:28.608Z,996.44
2018-01-22T10:38:30.025Z,996.41
2018-01-22T10:39:31.447Z,996.39
2018-01-22T10:40:32.868Z,996.37
2018-01-22T10:41:34.281Z,996.44
2018-01-22T10:42:35.698Z,996.40
2018-01-22T10:43:37.113Z,996.39
2018-01-22T10:44:38.531Z,996.39
2018-01-22T10:45:39.942Z,996.45
2018-01-22T10:46:41.360Z,996.38
2018-01-22T10:47:42.781Z,996.33
2018-01-22T10:48:44.186Z,996.32
2018-01-22T10:49:45.605Z,996.34
2018-01-22T10:50:47.044Z,996.38
2018-01-22T10:51:48.453Z,996.42
2018-01-22T10:52:49.881Z,996.38
2018-01-22T10:53:51.293Z,996.43
2018-01-22T10:54:52.708Z,996.44
2018-01-22T10:55:54.121Z,996.40
2018-01-22T10:56:55.537Z,996.41
2018-01-22T10:57:57.064Z,996.39
2018-01-22T10:58:58.484Z,996.33
2018-01-22T10:59:59.894Z,996.37
2018-01-22T11:01:01.310Z,996.39
2018-01-22T11:02:02.723Z,996.32
2018-01-22T11:03:04.139Z,996.36
2018-01-22T11:04:05.556Z,996.33
2018-01-22T11:05:06.967Z,996.30
2018-01-22T11:06:08.391Z,996.38
2018-01-22T11:07:09.807Z,996.38
2018-01-22T11:08:11.218Z,996.35
2018-01-22T11:09:12.660Z,996.37
2018-01-22T11:10:14.077Z,996.32
2018-01-22T11:11:15.484Z,996.34
2018-01-22T11:12:16.907Z,996.29
2018-01-22T11:13:18.301Z,996.31
2018-01-22T11:14:19.726Z,996.33
2018-01-22T11:15:21.142Z,996.32
2018-01-22T11:16:22.566Z,996.26
2018-01-22T11:17:23.984Z,996.32
2018-01-22T11:18:25.401Z,996.30
2018-01-22T11:19:26.840Z,996.32
2018-01-22T11:20:28.260Z,996.35
2018-01-22T11:21:29.666Z,996.32
2018-01-22T11:22:31.076Z,996.36
2018-01-22T11:23:32.486Z,996.35
2018-01-22T11:24:33.931Z,996.39
2018-01-22T11:25:35.341Z,996.42
2018-01-22T11:26:36.763Z,996.42
2018-01-22T11:27:38.193Z,996.48
2018-01-22T11:28:39.597Z,996.49
2018-01-22T11:29:41.028Z,996.49
2018-01-22T11:30:42.441Z,996.51
2018-01-22T11:31:43.859Z,996.45
2018-01-22T11:32:45.293Z,996.39
2018-01-22T11:33:46.707Z,996.43
2018-01-22T11:34:48.123Z,996.43
2018-01-22T11:35:49.544Z,996.38
2018-01-22T11:36:50.964Z,996.44
2018-01-22T11:37:52.445Z,996.37
2018-01-22T11:38:53.870Z,996.32
2018-01-22T11:39:55.292Z,996.35
2018-01-22T11:40:56.717Z,996.36
2018-01-22T11:41:58.140Z,996.35
2018-01-22T11:42:59.572Z,996.37
2018-01-22T11:44:00.984Z,996.36
2018-01-22T11:45:02.446Z,996.33
2018-01-22T11:46:03.869Z,996.36
2018-01-22T11:47:05.280Z,996.36
2018-01-22T11:48:06.716Z,996.40
2018-01-22T11:49:08.137Z,996.38
2018-01-22T11:50:09.543Z,996.42
2018-01-22T11:51:10.954Z,996.36
2018-01-22T11:52:12.374Z,996.39
2018-01-22T11:53:13.787Z,996.35
2018-01-22T11:54:15.194Z,996.35
2018-01-22T11:55:16.618Z,996.38
2018-01-22T11:56:18.028Z,996.33
2018-01-22T11:57:19.455Z,996.41
2018-01-22T11:58:20.866Z,996.46
2018-01-22T11:59:22.286Z,996.43
2018-01-22T12:00:23.700Z,996.45
2018-01-22T12:01:25.129Z,996.43
2018-01-22T12:02:26.544Z,996.46
2018-01-22T12:03:27.964Z,996.46
2018-01-22T12:04:29.376Z,996.49
2018-01-22T12:05:30.804Z,996.55
2018-01-22T12:06:32.231Z,996.58
2018-01-22T12:07:33.647Z,996.62
2018-01-22T12:08:35.074Z,996.62
2018-01-22T12:09:36.498Z,996.67
2018-01-22T12:10:37.921Z,996.61
2018-01-22T12:11:39.337Z,996.70
2018-01-22T12:12:40.755Z,996.69
2018-01-22T12:13:42.173Z,996.65
2018-01-22T12:14:43.606Z,996.68
2018-01-22T12:15:45.008Z,996.62
2018-01-22T12:16:46.425Z,996.61
2018-01-22T12:17:47.856Z,996.63
2018-01-22T12:18:49.270Z,996.62
2018-01-22T12:19:50.689Z,996.62
2018-01-22T12:20:52.101Z,996.63
2018-01-22T12:21:53.508Z,996.62
2018-01-22T12:22:54.942Z,996.57
2018-01-22T12:23:56.360Z,996.60
2018-01-22T12:24:57.900Z,996.62
2018-01-22T12:25:59.322Z,996.65
2018-01-22T12:27:00.754Z,996.63
2018-01-22T12:28:02.172Z,996.66
2018-01-22T12:29:03.586Z,996.73
2018-01-22T12:30:05.004Z,996.72
2018-01-22T12:31:06.422Z,996.84
2018-01-22T12:32:07.834Z,996.86
2018-01-22T12:33:09.254Z,996.86
2018-01-22T12:34:10.672Z,996.84
2018-01-22T12:35:12.081Z,996.90
2018-01-22T12:36:13.500Z,996.94
2018-01-22T12:37:14.928Z,996.96
2018-01-22T12:38:16.453Z,996.92
2018-01-22T12:39:17.869Z,996.97
2018-01-22T12:40:19.289Z,996.96
2018-01-22T12:41:20.702Z,996.97
2018-01-22T12:42:22.118Z,996.99
2018-01-22T12:43:23.531Z,997.05
2018-01-22T12:44:24.950Z,996.97
2018-01-22T12:45:26.401Z,997.04